Time;durP1;ratioP1;P1;durP2;ratioP2;P2;SDS_P1;SDS_P2;PMS_P1;PMS_P2;Temp;Humidity;BMP_temperature;BMP_pressure;BME280_temperature;BME280_humidity;BME280_pressure;Samples;Min_cycle;Max_cycle;Signal;HPM_P1;HPM_P2
2022/08/28 00:00:26;;;;;;;13.35;7.80;;;;;;;19.88;100.00;99971.06;5051941;28;20025;-71
2022/08/28 00:02:53;;;;;;;12.48;7.07;;;;;;;19.86;100.00;99972.13;5052054;28;20384;-72
2022/08/28 00:05:21;;;;;;;13.10;7.43;;;;;;;19.86;100.00;99961.31;5050356;28;20094;-72
2022/08/28 00:07:47;;;;;;;12.93;8.88;;;;;;;19.86;100.00;99953.22;5054574;28;20063;-72
2022/08/28 00:10:14;;;;;;;15.73;9.07;;;;;;;19.82;100.00;99960.69;5051758;28;20053;-72
2022/08/28 00:12:40;;;;;;;15.13;8.07;;;;;;;19.78;100.00;99951.09;5050394;28;20025;-71
2022/08/28 00:15:12;;;;;;;16.83;8.82;;;;;;;19.81;100.00;99953.56;5054265;28;20377;-72
2022/08/28 00:17:38;;;;;;;14.27;9.32;;;;;;;19.81;100.00;99958.97;5051767;28;20098;-71
2022/08/28 00:20:05;;;;;;;14.15;7.40;;;;;;;19.80;100.00;99954.56;5050956;28;20025;-71
2022/08/28 00:22:31;;;;;;;16.10;9.80;;;;;;;19.83;100.00;99951.63;5050988;28;20112;-71
2022/08/28 00:24:56;;;;;;;17.25;11.10;;;;;;;19.82;100.00;99955.28;5051071;28;20103;-72
2022/08/28 00:30:06;;;;;;;14.50;8.85;;;;;;;19.89;100.00;99955.69;5049688;28;20071;-72
2022/08/28 00:32:33;;;;;;;13.60;8.10;;;;;;;19.89;100.00;99961.97;5049872;28;20028;-71
2022/08/28 00:35:00;;;;;;;13.75;7.95;;;;;;;19.91;100.00;99956.47;5050432;28;20028;-72
2022/08/28 00:37:26;;;;;;;18.80;8.27;;;;;;;19.93;100.00;99962.63;5053076;28;20021;-72
2022/08/28 00:39:52;;;;;;;12.30;7.70;;;;;;;19.91;100.00;99960.03;5050515;28;20501;-72
2022/08/28 00:42:18;;;;;;;15.20;7.20;;;;;;;19.91;100.00;99959.16;5050540;28;20049;-72
2022/08/28 00:44:44;;;;;;;12.73;8.25;;;;;;;19.91;100.00;99951.94;5049321;28;20027;-72
2022/08/28 00:47:09;;;;;;;13.75;7.63;;;;;;;20.01;100.00;99966.50;5051160;28;20113;-72
2022/08/28 00:49:42;;;;;;;13.07;8.27;;;;;;;19.98;100.00;99960.47;5051014;28;20036;-73
2022/08/28 00:52:08;;;;;;;15.63;7.60;;;;;;;19.93;100.00;99952.69;5051154;28;20033;-72
2022/08/28 00:54:49;;;;;;;13.70;7.55;;;;;;;19.93;100.00;99952.69;5050797;28;20099;-72
2022/08/28 00:57:21;;;;;;;12.88;7.00;;;;;;;19.90;100.00;99947.50;5049436;28;20029;-71
2022/08/28 00:59:47;;;;;;;10.85;6.78;;;;;;;19.90;100.00;99952.06;5050575;28;20427;-72
2022/08/28 01:02:12;;;;;;;12.13;7.10;;;;;;;19.98;100.00;99955.94;5046105;28;20029;-72
2022/08/28 01:04:38;;;;;;;13.90;7.28;;;;;;;20.01;100.00;99961.09;5049546;28;20032;-72
2022/08/28 01:07:07;;;;;;;12.63;7.13;;;;;;;20.01;100.00;99958.41;5050801;28;20029;-71
2022/08/28 01:09:36;;;;;;;12.25;6.70;;;;;;;19.98;100.00;99960.47;5050678;28;20476;-72
2022/08/28 01:12:07;;;;;;;11.85;6.60;;;;;;;19.96;100.00;99960.56;5050928;28;20052;-72
2022/08/28 01:14:36;;;;;;;10.35;6.53;;;;;;;19.95;100.00;99966.09;5050632;28;20036;-72
2022/08/28 01:17:04;;;;;;;12.80;7.00;;;;;;;19.98;100.00;99966.75;5050515;28;20068;-72
2022/08/28 01:19:37;;;;;;;13.35;6.97;;;;;;;19.88;100.00;99960.25;5050890;28;20033;-73
2022/08/28 01:22:36;;;;;;;9.40;5.57;;;;;;;19.90;100.00;99966.38;5050957;28;20078;-72
2022/08/28 01:25:06;;;;;;;10.70;7.60;;;;;;;19.85;100.00;99960.47;5050514;28;20114;-72
2022/08/28 01:27:32;;;;;;;12.18;6.85;;;;;;;19.75;100.00;99959.41;5050816;28;20024;-71
2022/08/28 01:29:57;;;;;;;13.52;7.05;;;;;;;19.67;100.00;99964.47;5050717;28;20029;-70
2022/08/28 01:32:30;;;;;;;13.13;7.20;;;;;;;19.67;100.00;99967.16;5053087;28;20521;-72
2022/08/28 01:34:57;;;;;;;11.52;7.13;;;;;;;19.63;100.00;99976.47;5050734;28;20480;-72
2022/08/28 01:37:22;;;;;;;11.80;8.15;;;;;;;19.60;100.00;99960.50;5050520;28;20033;-72
2022/08/28 01:39:48;;;;;;;11.82;7.50;;;;;;;19.57;100.00;99974.22;5050533;28;20021;-72
2022/08/28 01:42:14;;;;;;;10.50;6.55;;;;;;;19.57;100.00;99972.34;5050670;28;20495;-72
2022/08/28 01:44:39;;;;;;;11.32;7.25;;;;;;;19.56;100.00;99964.34;5050515;28;20037;-72
2022/08/28 01:47:04;;;;;;;14.48;7.25;;;;;;;19.52;100.00;99968.25;5050337;28;20036;-72
2022/08/28 01:49:30;;;;;;;11.30;7.43;;;;;;;19.51;100.00;99969.22;5050527;28;20025;-72
2022/08/28 01:51:56;;;;;;;13.85;7.53;;;;;;;19.49;100.00;99973.84;5050711;28;20044;-72
2022/08/28 01:54:22;;;;;;;15.05;7.75;;;;;;;19.48;100.00;99970.31;5054046;28;20044;-71
2022/08/28 01:56:49;;;;;;;12.38;7.30;;;;;;;19.51;100.00;99974.59;5054310;28;20052;-72
2022/08/28 01:59:15;;;;;;;12.98;7.45;;;;;;;19.44;100.00;99970.59;5054377;28;20104;-72
2022/08/28 02:01:42;;;;;;;12.57;7.50;;;;;;;19.42;100.00;99967.19;5054000;28;20081;-71
2022/08/28 02:04:08;;;;;;;14.82;8.88;;;;;;;19.45;100.00;99978.63;5054205;28;20032;-71
2022/08/28 02:06:34;;;;;;;11.82;7.03;;;;;;;19.46;100.00;99979.47;5054168;28;20040;-70
2022/08/28 02:08:59;;;;;;;11.52;7.07;;;;;;;19.43;100.00;99982.38;5054333;28;20024;-72
2022/08/28 02:11:28;;;;;;;11.88;7.50;;;;;;;19.37;100.00;99977.41;5052775;28;20110;-71
2022/08/28 02:13:53;;;;;;;27.77;8.35;;;;;;;19.34;100.00;99983.88;5054007;28;20025;-71
2022/08/28 02:16:19;;;;;;;10.25;7.40;;;;;;;19.34;100.00;99989.25;5054441;28;20159;-71
2022/08/28 02:18:45;;;;;;;10.68;7.22;;;;;;;19.31;100.00;99985.91;5058846;28;20040;-72
2022/08/28 02:21:11;;;;;;;10.13;6.65;;;;;;;19.23;100.00;99977.44;5054022;28;20089;-72
2022/08/28 02:23:39;;;;;;;12.38;7.60;;;;;;;19.16;100.00;99966.22;5051587;28;20021;-71
2022/08/28 02:26:04;;;;;;;9.10;6.82;;;;;;;19.22;100.00;99976.59;5053216;28;20130;-71
2022/08/28 02:28:29;;;;;;;12.98;8.10;;;;;;;19.19;100.00;99965.16;5051909;28;20455;-72
2022/08/28 02:30:55;;;;;;;12.27;7.80;;;;;;;19.22;100.00;99976.59;5055575;28;20025;-72
2022/08/28 02:33:20;;;;;;;11.77;7.45;;;;;;;19.13;100.00;99969.13;5052978;28;20602;-72
2022/08/28 02:35:46;;;;;;;10.55;7.10;;;;;;;19.20;100.00;99974.97;5052909;28;20024;-72
2022/08/28 02:38:12;;;;;;;10.40;7.90;;;;;;;19.16;100.00;99974.31;5053016;28;20025;-71
2022/08/28 02:40:38;;;;;;;13.45;7.82;;;;;;;19.11;100.00;99970.22;5053335;28;20033;-72
2022/08/28 02:43:04;;;;;;;14.98;7.80;;;;;;;19.08;100.00;99968.56;5053236;28;20028;-71
2022/08/28 02:45:30;;;;;;;12.38;6.88;;;;;;;19.04;100.00;99966.19;5053525;28;20024;-71
2022/08/28 02:47:55;;;;;;;10.43;7.60;;;;;;;18.91;100.00;99955.38;5053689;28;20025;-71
2022/08/28 02:50:22;;;;;;;12.68;7.22;;;;;;;18.95;100.00;99962.28;5053454;28;20476;-72
2022/08/28 02:52:49;;;;;;;13.43;6.50;;;;;;;18.89;100.00;99957.31;5053000;28;20036;-71
2022/08/28 02:55:16;;;;;;;11.40;7.05;;;;;;;18.88;100.00;99954.75;5053375;28;20052;-72
2022/08/28 02:57:42;;;;;;;12.25;7.78;;;;;;;18.84;100.00;99955.91;5053414;28;20028;-71
2022/08/28 03:00:12;;;;;;;12.95;8.40;;;;;;;18.80;100.00;99967.84;5053289;28;20392;-70
2022/08/28 03:02:38;;;;;;;13.27;7.70;;;;;;;18.83;100.00;99970.34;5053261;28;20056;-71
2022/08/28 03:05:04;;;;;;;12.20;8.05;;;;;;;18.79;100.00;99967.00;5052453;28;20025;-72
2022/08/28 03:07:29;;;;;;;12.57;7.70;;;;;;;18.71;100.00;99958.56;5053045;28;20028;-72
2022/08/28 03:09:55;;;;;;;13.15;7.35;;;;;;;18.78;100.00;99969.78;5053282;28;20021;-72
2022/08/28 03:12:23;;;;;;;14.30;8.50;;;;;;;18.74;100.00;99962.88;5053033;28;20032;-72
2022/08/28 03:14:50;;;;;;;14.32;8.40;;;;;;;18.69;100.00;99965.00;5053072;28;20078;-71
2022/08/28 03:17:16;;;;;;;13.27;8.77;;;;;;;18.63;100.00;99962.72;5053051;28;20387;-72
2022/08/28 03:19:41;;;;;;;12.48;8.50;;;;;;;18.71;100.00;99973.84;5053103;28;20043;-72
2022/08/28 03:22:07;;;;;;;16.58;8.88;;;;;;;18.69;100.00;99975.78;5052557;28;20115;-71
2022/08/28 03:24:32;;;;;;;17.20;8.80;;;;;;;18.69;100.00;99970.38;5053038;28;20040;-72
2022/08/28 03:27:00;;;;;;;14.18;8.88;;;;;;;18.72;100.00;99971.06;5052939;28;20043;-71
2022/08/28 03:29:26;;;;;;;12.60;7.45;;;;;;;18.69;100.00;99968.56;5052757;28;20025;-72
2022/08/28 03:31:52;;;;;;;9.43;6.25;;;;;;;18.68;100.00;99968.69;5052602;28;20400;-72
2022/08/28 03:34:17;;;;;;;13.73;6.20;;;;;;;18.68;100.00;99968.69;5052535;28;20082;-72
2022/08/28 03:36:42;;;;;;;12.80;7.15;;;;;;;18.65;100.00;99966.19;5052605;28;20797;-71
2022/08/28 03:39:08;;;;;;;12.75;7.70;;;;;;;18.66;100.00;99976.88;5052743;28;20506;-71
2022/08/28 03:41:34;;;;;;;13.48;7.45;;;;;;;18.66;100.00;99970.59;5054929;28;20036;-72
2022/08/28 03:44:00;;;;;;;13.82;7.57;;;;;;;18.68;100.00;99969.50;5052555;28;20029;-72
2022/08/28 03:46:31;;;;;;;11.82;7.00;;;;;;;18.63;100.00;99974.38;5052291;28;20079;-71
2022/08/28 03:48:58;;;;;;;14.48;7.47;;;;;;;18.63;100.00;99966.28;5052574;28;20017;-72
2022/08/28 03:51:27;;;;;;;12.40;7.13;;;;;;;18.63;100.00;99965.41;5050844;28;20032;-72
2022/08/28 03:53:53;;;;;;;14.50;7.28;;;;;;;18.63;100.00;99968.13;5052070;28;20045;-72
2022/08/28 03:56:22;;;;;;;12.50;7.50;;;;;;;18.64;100.00;99961.75;5052374;28;20036;-71
2022/08/28 03:58:50;;;;;;;10.55;6.10;;;;;;;18.60;100.00;99960.25;5052219;28;20068;-73
2022/08/28 04:01:15;;;;;;;12.38;7.35;;;;;;;18.55;100.00;99956.97;5051700;28;20020;-71
2022/08/28 04:03:41;;;;;;;13.18;7.45;;;;;;;18.62;100.00;99963.66;5051771;28;20033;-72
2022/08/28 04:06:06;;;;;;;11.05;6.93;;;;;;;18.62;100.00;99967.25;5052049;28;20024;-72
2022/08/28 04:08:32;;;;;;;9.60;6.05;;;;;;;18.64;100.00;99973.41;5054567;28;20027;-71
2022/08/28 04:10:59;;;;;;;11.50;6.25;;;;;;;18.64;100.00;99967.13;5050603;28;20029;-71
2022/08/28 04:13:25;;;;;;;11.55;5.93;;;;;;;18.65;100.00;99974.28;5051983;28;20025;-71
2022/08/28 04:16:09;;;;;;;12.45;6.70;;;;;;;18.70;100.00;99978.38;5052049;28;20033;-71
2022/08/28 04:18:37;;;;;;;10.35;6.60;;;;;;;18.71;100.00;99979.25;5051788;28;20411;-71
2022/08/28 04:21:11;;;;;;;9.98;6.38;;;;;;;18.73;100.00;99977.31;5068141;28;20032;-69
2022/08/28 04:23:38;;;;;;;11.30;6.35;;;;;;;18.75;100.00;99981.63;5071748;28;20032;-71
2022/08/28 04:26:05;;;;;;;12.00;6.47;;;;;;;18.79;100.00;99982.28;5071547;28;20031;-71
2022/08/28 04:28:31;;;;;;;15.57;7.53;;;;;;;18.78;100.00;99976.03;5070541;28;20029;-70
2022/08/28 04:30:57;;;;;;;12.15;6.50;;;;;;;18.78;100.00;99972.50;5070513;28;20028;-71
2022/08/28 04:33:25;;;;;;;11.55;6.85;;;;;;;18.79;100.00;99966.13;5056917;28;20033;-72
2022/08/28 04:35:50;;;;;;;9.73;6.60;;;;;;;18.79;100.00;99982.28;5050050;28;20017;-72
2022/08/28 04:38:16;;;;;;;12.18;6.75;;;;;;;18.80;100.00;99978.63;5052453;28;20020;-72
2022/08/28 04:40:42;;;;;;;9.68;6.05;;;;;;;18.80;100.00;99971.41;5050750;28;20124;-71
2022/08/28 04:43:08;;;;;;;14.75;7.07;;;;;;;18.81;100.00;99969.59;5051266;28;20451;-72
2022/08/28 04:45:38;;;;;;;12.68;6.65;;;;;;;18.81;100.00;99975.84;5051226;28;20104;-72
2022/08/28 04:48:04;;;;;;;10.35;6.72;;;;;;;18.81;100.00;99969.59;5051048;28;20021;-72
2022/08/28 04:50:30;;;;;;;8.75;5.93;;;;;;;18.82;100.00;99977.56;5051376;28;20507;-72
2022/08/28 04:52:55;;;;;;;12.13;6.07;;;;;;;18.83;100.00;99979.28;5051087;28;20052;-72
2022/08/28 04:55:20;;;;;;;15.98;7.03;;;;;;;18.85;100.00;99987.25;5051278;28;20096;-71
2022/08/28 04:57:46;;;;;;;11.32;6.43;;;;;;;18.85;100.00;99982.75;5050897;28;20103;-70
2022/08/28 05:00:12;;;;;;;13.23;7.20;;;;;;;18.89;100.00;99988.78;5051143;28;20029;-70
2022/08/28 05:02:37;;;;;;;13.38;6.50;;;;;;;18.92;100.00;99983.19;5049575;28;20029;-70
2022/08/28 05:05:03;;;;;;;16.13;7.10;;;;;;;18.95;100.00;99983.84;5051196;28;20027;-70
2022/08/28 05:07:29;;;;;;;13.70;6.35;;;;;;;18.98;100.00;99985.47;5050992;28;20090;-71
2022/08/28 05:09:54;;;;;;;11.68;6.88;;;;;;;19.08;100.00;99990.16;5051149;28;20476;-71
2022/08/28 05:12:21;;;;;;;12.15;7.32;;;;;;;19.09;100.00;99986.47;5049390;28;20036;-70
2022/08/28 05:14:47;;;;;;;18.60;7.13;;;;;;;19.07;100.00;99974.06;5050936;28;20033;-71
2022/08/28 05:17:13;;;;;;;13.32;6.93;;;;;;;19.25;100.00;99991.69;5050694;28;20511;-71
2022/08/28 05:19:40;;;;;;;13.55;7.28;;;;;;;19.28;100.00;99994.19;5050937;28;20029;-71
2022/08/28 05:22:08;;;;;;;13.23;7.47;;;;;;;19.39;100.00;99999.72;5050914;28;20399;-71
2022/08/28 05:24:35;;;;;;;12.05;6.63;;;;;;;19.47;100.00;100003.63;5050860;28;20494;-70
2022/08/28 05:27:01;;;;;;;17.08;7.07;;;;;;;19.49;100.00;99993.59;5050344;28;20468;-71
2022/08/28 05:29:27;;;;;;;13.65;7.22;;;;;;;19.56;100.00;100002.13;5049697;28;20025;-71
2022/08/28 05:31:52;;;;;;;10.30;7.35;;;;;;;19.65;100.00;100006.91;5050182;28;20036;-71
2022/08/28 05:34:19;;;;;;;10.98;7.45;;;;;;;19.75;100.00;100005.31;5048238;28;20029;-70
2022/08/28 05:36:45;;;;;;;11.45;7.20;;;;;;;19.81;100.00;100010.25;5048340;28;20029;-71
2022/08/28 05:39:11;;;;;;;11.60;7.03;;;;;;;19.89;100.00;100005.19;5050051;28;20025;-71
2022/08/28 05:41:39;;;;;;;11.50;6.88;;;;;;;19.92;100.00;99996.00;5051675;28;20032;-70
2022/08/28 05:44:08;;;;;;;12.65;6.80;;;;;;;20.05;100.00;100000.41;5069879;28;20027;-71
2022/08/28 05:46:36;;;;;;;12.85;6.57;;;;;;;20.18;100.00;100011.25;5058174;28;20033;-70
2022/08/28 05:49:02;;;;;;;11.57;6.90;;;;;;;20.30;100.00;100003.09;5050705;28;20025;-71
2022/08/28 05:51:28;;;;;;;12.13;6.65;;;;;;;20.41;100.00;100005.88;5050241;28;20384;-71
2022/08/28 05:53:54;;;;;;;11.77;6.90;;;;;;;20.52;100.00;100000.56;5049969;28;20053;-71
2022/08/28 05:56:24;;;;;;;11.93;6.47;;;;;;;20.67;100.00;100012.09;5050489;28;20043;-72
2022/08/28 05:58:50;;;;;;;11.75;6.35;;;;;;;20.79;100.00;99998.53;5050530;28;20032;-71
2022/08/28 06:01:27;;;;;;;11.82;5.88;;;;;;;20.97;100.00;100007.16;5050274;28;20028;-72
2022/08/28 06:04:02;;;;;;;10.23;6.82;;;;;;;21.06;100.00;100009.16;5049807;28;20678;-72
2022/08/28 06:06:32;;;;;;;10.77;7.03;;;;;;;21.16;100.00;100017.41;5051278;28;20029;-71
2022/08/28 06:09:01;;;;;;;9.38;6.07;;;;;;;21.28;100.00;100016.50;5049118;28;20025;-71
2022/08/28 06:11:27;;;;;;;11.15;6.40;;;;;;;21.39;100.00;100021.94;5048927;28;20131;-70
2022/08/28 06:13:53;;;;;;;12.50;6.25;;;;;;;21.42;100.00;100013.56;5049065;28;20037;-71
2022/08/28 06:16:19;;;;;;;10.52;6.30;;;;;;;21.59;100.00;100011.31;5049521;28;20032;-71
2022/08/28 06:18:45;;;;;;;9.38;5.65;;;;;;;21.73;100.00;100023.78;5049704;28;20086;-71
2022/08/28 06:21:12;;;;;;;8.27;5.10;;;;;;;21.83;100.00;100024.78;5049327;28;20082;-71
2022/08/28 06:23:37;;;;;;;8.95;5.82;;;;;;;21.96;99.69;100028.25;5051384;28;20025;-70
2022/08/28 06:26:05;;;;;;;9.20;5.78;;;;;;;22.09;97.65;100031.75;5050437;28;20071;-70
2022/08/28 06:28:32;;;;;;;10.77;5.43;;;;;;;22.23;96.94;100033.34;5050260;28;20025;-71
2022/08/28 06:31:02;;;;;;;7.57;5.25;;;;;;;22.45;95.25;100036.06;5048295;28;20033;-71
2022/08/28 06:33:28;;;;;;;11.07;4.97;;;;;;;22.55;93.41;100037.94;5065286;28;20034;-70
2022/08/28 06:35:55;;;;;;;7.95;4.65;;;;;;;22.68;92.57;100041.38;5069185;28;20083;-71
2022/08/28 06:38:22;;;;;;;8.55;4.40;;;;;;;22.81;91.17;100041.22;5056878;28;20090;-71
2022/08/28 06:40:51;;;;;;;7.00;4.22;;;;;;;22.97;90.83;100037.13;5051651;28;20127;-71
2022/08/28 06:43:19;;;;;;;8.55;4.80;;;;;;;23.11;89.17;100034.09;5051152;28;20107;-70
2022/08/28 06:45:46;;;;;;;7.10;3.75;;;;;;;23.15;86.65;100043.72;5053359;28;20028;-71
2022/08/28 06:48:15;;;;;;;6.78;3.97;;;;;;;23.29;87.70;100046.16;5053420;28;20032;-71
2022/08/28 06:50:43;;;;;;;9.23;4.15;;;;;;;23.49;86.29;100038.19;5053456;28;20099;-73
2022/08/28 06:53:11;;;;;;;7.40;4.30;;;;;;;23.66;85.78;100043.06;5053297;28;20534;-73
2022/08/28 06:55:36;;;;;;;6.53;4.13;;;;;;;23.88;84.33;100051.06;5051060;28;20447;-70
2022/08/28 06:58:04;;;;;;;10.30;4.60;;;;;;;24.20;82.24;100041.84;5048402;28;20056;-70
2022/08/28 07:00:30;;;;;;;7.30;4.38;;;;;;;24.40;80.70;100040.94;5033351;28;20025;-71
2022/08/28 07:02:56;;;;;;;7.60;4.57;;;;;;;24.77;79.46;100046.69;5043051;28;20025;-70
2022/08/28 07:05:21;;;;;;;6.43;4.03;;;;;;;24.94;79.05;100046.03;5053407;28;20366;-70
2022/08/28 07:07:47;;;;;;;9.15;4.22;;;;;;;25.33;76.68;100055.97;5053189;28;20082;-70
2022/08/28 07:10:13;;;;;;;8.00;3.83;;;;;;;25.62;74.37;100059.59;5052980;28;20064;-70
2022/08/28 07:12:39;;;;;;;8.63;4.47;;;;;;;26.03;73.35;100065.75;5053307;28;20036;-70
2022/08/28 07:15:05;;;;;;;6.97;4.28;;;;;;;26.25;71.67;100065.41;5052869;28;20357;-71
2022/08/28 07:17:31;;;;;;;8.15;3.75;;;;;;;26.21;69.70;100069.44;5053084;28;20036;-69
2022/08/28 07:19:57;;;;;;;7.28;4.03;;;;;;;25.90;70.62;100069.63;5052884;28;20480;-71
2022/08/28 07:22:22;;;;;;;8.45;4.40;;;;;;;25.94;71.79;100078.38;5053148;28;20393;-72
2022/08/28 07:24:48;;;;;;;6.65;3.83;;;;;;;25.89;70.46;100070.63;5053032;28;20032;-70
2022/08/28 07:27:13;;;;;;;7.65;4.00;;;;;;;26.23;71.80;100072.91;5053439;28;20035;-70
2022/08/28 07:29:39;;;;;;;7.75;4.18;;;;;;;26.33;70.05;100077.31;5053090;28;20484;-71
2022/08/28 07:32:04;;;;;;;7.28;4.25;;;;;;;26.39;69.49;100078.59;5052954;28;20487;-70
2022/08/28 07:34:30;;;;;;;6.90;4.28;;;;;;;26.60;68.64;100076.50;5056057;28;20017;-70
2022/08/28 07:37:02;;;;;;;6.40;4.00;;;;;;;26.79;68.58;100087.34;5055913;28;20032;-70
2022/08/28 07:39:28;;;;;;;5.45;3.33;;;;;;;27.12;68.27;100086.72;5055719;28;20056;-70
2022/08/28 07:41:53;;;;;;;8.48;4.05;;;;;;;27.29;65.96;100085.94;5053952;28;20033;-71
2022/08/28 07:47:05;;;;;;;7.15;3.90;;;;;;;27.59;66.54;100082.00;5054516;28;20127;-70
2022/08/28 07:49:32;;;;;;;8.05;4.70;;;;;;;27.59;65.23;100099.25;5052600;28;20079;-69
2022/08/28 07:51:58;;;;;;;6.68;3.40;;;;;;;27.75;64.51;100090.34;5051233;28;20032;-69
2022/08/28 07:54:23;;;;;;;5.20;3.38;;;;;;;27.76;64.02;100101.09;5051339;28;20045;-70
2022/08/28 07:56:50;;;;;;;7.82;3.72;;;;;;;27.96;63.19;100097.22;5051526;28;20024;-70
2022/08/28 07:59:16;;;;;;;10.15;4.15;;;;;;;27.93;63.55;100086.59;5051227;28;20369;-71
2022/08/28 08:01:43;;;;;;;8.05;4.00;;;;;;;28.04;60.93;100105.50;5051509;28;20094;-71
2022/08/28 08:04:12;;;;;;;7.28;3.75;;;;;;;27.88;62.36;100105.34;5051685;28;20071;-71
2022/08/28 08:06:39;;;;;;;7.32;3.85;;;;;;;27.76;61.91;100112.03;5052240;28;20029;-70
2022/08/28 08:09:08;;;;;;;8.48;4.05;;;;;;;27.87;62.60;100109.09;5052066;28;20040;-71
2022/08/28 08:11:33;;;;;;;7.25;3.40;;;;;;;28.31;61.56;100113.59;5032126;28;20461;-71
2022/08/28 08:14:04;;;;;;;7.25;3.78;;;;;;;28.61;61.22;100104.06;5032168;28;20094;-71
2022/08/28 08:16:32;;;;;;;9.00;5.00;;;;;;;28.55;59.31;100103.84;5038401;28;20025;-71
2022/08/28 08:18:58;;;;;;;7.70;4.60;;;;;;;28.60;60.71;100110.53;5050958;28;20107;-71
2022/08/28 08:21:24;;;;;;;7.43;4.00;;;;;;;27.99;61.95;100113.31;5051174;28;20051;-72
2022/08/28 08:23:50;;;;;;;8.20;4.25;;;;;;;27.47;64.09;100116.88;5050152;28;20413;-72
2022/08/28 08:26:19;;;;;;;8.32;3.92;;;;;;;26.96;66.04;100120.19;5051060;28;20025;-71
2022/08/28 08:28:45;;;;;;;5.75;4.00;;;;;;;26.36;68.13;100128.00;5050961;28;20024;-71
2022/08/28 08:31:13;;;;;;;7.22;4.85;;;;;;;26.03;70.87;100128.47;5051171;28;20348;-72
2022/08/28 08:33:41;;;;;;;10.80;3.92;;;;;;;25.58;71.42;100134.47;5051303;28;20036;-71
2022/08/28 08:36:08;;;;;;;7.60;4.45;;;;;;;25.42;73.16;100122.41;5051037;28;20074;-71
2022/08/28 08:38:35;;;;;;;7.22;4.10;;;;;;;25.39;74.05;100139.00;5051601;28;20104;-71
2022/08/28 08:41:07;;;;;;;8.18;4.55;;;;;;;25.29;72.61;100136.22;5051661;28;20025;-71
2022/08/28 08:43:59;;;;;;;10.13;3.88;;;;;;;25.16;73.89;100130.19;5051570;28;20110;-71
2022/08/28 08:46:32;;;;;;;7.40;4.13;;;;;;;25.23;76.08;100135.94;5051003;28;20029;-71
2022/08/28 08:49:03;;;;;;;;;;;;;;;25.17;76.44;100144.66;5051642;28;20028;-70
2022/08/28 08:51:58;;;;;;;7.35;4.55;;;;;;;25.15;75.43;100139.34;5049452;28;19916;-71
2022/08/28 08:54:23;;;;;;;7.63;4.75;;;;;;;25.18;75.17;100143.66;5050789;28;20048;-71
2022/08/28 08:56:53;;;;;;;7.70;4.28;;;;;;;25.51;74.47;100140.59;5051002;28;20041;-72
2022/08/28 08:59:24;;;;;;;7.32;4.82;;;;;;;25.70;72.75;100144.19;5051293;28;20031;-71
2022/08/28 09:01:55;;;;;;;8.70;5.18;;;;;;;26.16;72.65;100150.84;5050600;28;20476;-71
2022/08/28 09:04:46;;;;;;;9.43;4.68;;;;;;;26.55;69.76;100144.28;5049532;28;20043;-71
2022/08/28 09:07:19;;;;;;;10.60;4.82;;;;;;;26.76;68.92;100147.69;5044313;28;20028;-70
2022/08/28 09:09:56;;;;;;;8.60;4.68;;;;;;;27.36;67.06;100151.75;5031039;28;20033;-71
2022/08/28 09:12:28;;;;;;;8.55;5.63;;;;;;;27.85;65.21;100146.66;5031112;28;20037;-71
2022/08/28 09:15:03;;;;;;;8.27;5.07;;;;;;;28.11;64.33;100150.34;5030949;28;20032;-71
2022/08/28 09:17:34;;;;;;;10.30;5.50;;;;;;;28.19;63.13;100136.75;5031035;28;20032;-71
2022/08/28 09:20:00;;;;;;;7.90;4.93;;;;;;;28.29;62.76;100145.72;5030977;28;20112;-72
2022/08/28 09:22:26;;;;;;;8.90;5.30;;;;;;;28.34;61.92;100146.09;5030852;28;20148;-71
2022/08/28 09:24:51;;;;;;;9.15;5.30;;;;;;;28.43;62.59;100139.66;5032317;28;20540;-72
2022/08/28 09:27:28;;;;;;;8.23;4.88;;;;;;;28.41;60.60;100147.19;5051156;28;20024;-70
2022/08/28 09:30:06;;;;;;;8.13;4.43;;;;;;;28.86;60.54;100152.47;5049355;28;20074;-69
2022/08/28 09:32:33;;;;;;;7.45;4.15;;;;;;;29.56;59.66;100145.75;5050777;28;20067;-71
2022/08/28 09:35:21;;;;;;;8.50;4.45;;;;;;;30.28;55.84;100147.78;5050151;28;20025;-71
2022/08/28 09:37:47;;;;;;;7.18;4.45;;;;;;;30.73;54.56;100145.31;5043546;28;20111;-74
2022/08/28 09:40:12;;;;;;;8.98;4.60;;;;;;;31.34;53.38;100153.75;5037392;28;20379;-74
2022/08/28 09:45:25;;;;;;;6.38;4.00;;;;;;;31.59;52.48;100149.84;5039840;28;20076;-72
2022/08/28 09:47:54;;;;;;;9.85;4.90;;;;;;;31.72;50.09;100154.75;5048369;28;20027;-74
2022/08/28 09:50:20;;;;;;;8.48;4.55;;;;;;;31.60;52.98;100158.94;5048582;28;20078;-75
2022/08/28 09:52:45;;;;;;;6.45;4.35;;;;;;;31.27;52.60;100149.13;5046936;28;20033;-75
2022/08/28 09:55:28;;;;;;;8.00;4.00;;;;;;;30.52;52.10;100145.88;5048916;28;20352;-76
2022/08/28 09:57:54;;;;;;;9.90;4.35;;;;;;;30.19;55.36;100146.03;5048531;28;20029;-74
2022/08/28 10:00:21;;;;;;;9.20;4.47;;;;;;;30.40;56.63;100139.03;5033515;28;20631;-74
2022/08/28 10:03:03;;;;;;;7.85;5.10;;;;;;;30.39;55.14;100151.06;5047994;28;20027;-75
2022/08/28 10:06:03;;;;;;;9.48;4.05;;;;;;;30.71;53.63;100147.38;5048084;28;20025;-76
2022/08/28 10:08:38;;;;;;;8.23;3.85;;;;;;;31.33;52.94;100148.44;5048325;28;20071;-76
2022/08/28 10:11:22;;;;;;;6.70;4.07;;;;;;;31.60;50.70;100153.44;5048385;28;20562;-74
2022/08/28 10:14:02;;;;;;;7.65;4.32;;;;;;;31.53;50.33;100146.97;5050468;28;20116;-78
2022/08/28 10:17:04;;;;;;;7.93;4.35;;;;;;;31.37;50.65;100149.81;5049632;28;20031;-75
2022/08/28 10:19:49;;;;;;;9.82;4.32;;;;;;;31.24;51.08;100147.59;5033943;28;20048;-76
2022/08/28 10:22:35;;;;;;;7.95;4.18;;;;;;;31.28;51.06;100137.09;5033750;28;20377;-72
2022/08/28 10:25:07;;;;;;;6.45;4.38;;;;;;;31.21;50.58;100142.44;5033013;28;20037;-77
2022/08/28 10:27:45;;;;;;;8.15;4.57;;;;;;;31.17;50.86;100141.06;5034857;28;20191;-75
2022/08/28 10:30:16;;;;;;;8.90;4.10;;;;;;;30.57;52.15;100143.47;5070414;28;20024;-74
2022/08/28 10:32:58;;;;;;;7.88;4.22;;;;;;;30.25;52.62;100143.50;5053467;28;20194;-76
2022/08/28 10:35:46;;;;;;;7.30;4.45;;;;;;;30.44;54.84;100143.16;5050819;28;20032;-74
2022/08/28 10:38:18;;;;;;;7.10;4.18;;;;;;;30.66;51.92;100133.31;5051625;28;20456;-75
2022/08/28 10:41:01;;;;;;;9.00;4.53;;;;;;;30.83;52.58;100127.66;5052858;28;20029;-74
2022/08/28 10:43:45;;;;;;;;;;;;;;;31.13;52.26;100133.38;5051222;28;20337;-75
2022/08/28 10:46:19;;;;;;;6.60;4.05;;;;;;;31.39;51.76;100145.84;5051229;28;19916;-75
2022/08/28 10:48:51;;;;;;;6.80;4.10;;;;;;;31.61;51.88;100144.16;5052865;28;20041;-70
2022/08/28 10:51:30;;;;;;;9.45;4.10;;;;;;;31.93;51.36;100135.72;5052549;28;20025;-73
2022/08/28 10:54:04;;;;;;;6.85;4.20;;;;;;;31.64;50.43;100139.16;5035341;28;20057;-78
2022/08/28 10:56:38;;;;;;;5.07;3.70;;;;;;;31.46;51.28;100129.47;5036369;28;20150;-74
2022/08/28 10:59:03;;;;;;;6.05;3.75;;;;;;;31.67;48.76;100126.94;5051740;28;20484;-73
2022/08/28 11:01:37;;;;;;;7.53;3.70;;;;;;;31.96;47.76;100127.13;5052833;28;20031;-75
2022/08/28 11:04:09;;;;;;;6.20;4.20;;;;;;;32.05;48.28;100131.50;5053488;28;20099;-74
2022/08/28 11:06:48;;;;;;;5.70;3.55;;;;;;;32.18;48.76;100131.72;5052042;28;20035;-73
2022/08/28 11:09:33;;;;;;;6.95;3.17;;;;;;;32.34;47.46;100130.75;5051611;28;20496;-73
2022/08/28 11:12:26;;;;;;;7.53;3.35;;;;;;;32.31;46.70;100137.47;5048985;28;20021;-74
2022/08/28 11:14:52;;;;;;;7.45;3.72;;;;;;;32.02;45.98;100131.88;5031801;28;20101;-73
2022/08/28 11:17:21;;;;;;;7.40;3.25;;;;;;;32.25;45.46;100137.34;5031773;28;20044;-74
2022/08/28 11:20:23;;;;;;;5.20;3.20;;;;;;;32.01;46.16;100135.69;5029088;28;20315;-72
2022/08/28 11:23:09;;;;;;;6.65;3.65;;;;;;;31.86;47.15;100137.50;5027253;28;20355;-72
2022/08/28 11:25:44;;;;;;;6.10;3.38;;;;;;;31.78;47.12;100134.78;5030141;28;20461;-72
2022/08/28 11:28:24;;;;;;;10.90;3.28;;;;;;;32.09;48.96;100136.44;5034184;28;20036;-72
2022/08/28 11:31:04;;;;;;;6.15;3.60;;;;;;;32.07;46.24;100130.28;5039541;28;20112;-73
2022/08/28 11:33:42;;;;;;;6.40;3.58;;;;;;;32.34;46.32;100134.34;5045430;28;20040;-72
2022/08/28 11:36:31;;;;;;;7.38;3.22;;;;;;;32.73;47.15;100132.28;5051153;28;20021;-72
2022/08/28 11:39:12;;;;;;;9.73;3.88;;;;;;;33.01;47.26;100129.75;5039807;28;20136;-71